Time;durP1;ratioP1;P1;durP2;ratioP2;P2;SDS_P1;SDS_P2;PMS_P1;PMS_P2;Temp;Humidity;BMP_temperature;BMP_pressure;BME280_temperature;BME280_humidity;BME280_pressure;Samples;Min_cycle;Max_cycle;Signal;HPM_P1;HPM_P2
2023/11/20 00:01:53;;;;;;;10.68;6.60;;;;;;;;;;5101703;28;20116;-70
2023/11/20 00:04:38;;;;;;;10.05;6.32;;;;;;;;;;5116455;28;20019;-71
2023/11/20 00:07:24;;;;;;;9.82;6.40;;;;;;;;;;5117029;28;20106;-71
2023/11/20 00:10:10;;;;;;;9.98;6.50;;;;;;;;;;5116329;28;20359;-72
2023/11/20 00:12:55;;;;;;;10.10;6.30;;;;;;;;;;5115865;28;20114;-72
2023/11/20 00:15:41;;;;;;;10.57;6.45;;;;;;;;;;5116406;28;20027;-71
2023/11/20 00:18:27;;;;;;;11.68;6.65;;;;;;;;;;5115891;28;20015;-71
2023/11/20 00:21:12;;;;;;;11.85;6.50;;;;;;;;;;5116497;28;20464;-71
2023/11/20 00:23:58;;;;;;;9.95;6.68;;;;;;;;;;5116065;28;20019;-73
2023/11/20 00:26:44;;;;;;;10.18;6.30;;;;;;;;;;5115550;28;20032;-70
2023/11/20 00:29:30;;;;;;;9.65;6.22;;;;;;;;;;5116131;28;20360;-70
2023/11/20 00:32:16;;;;;;;10.73;6.60;;;;;;;;;;5116906;28;20024;-71
2023/11/20 00:35:01;;;;;;;9.00;6.30;;;;;;;;;;5115587;28;20032;-70
2023/11/20 00:37:47;;;;;;;10.70;5.85;;;;;;;;;;5101372;28;20498;-71
2023/11/20 00:40:33;;;;;;;10.07;6.35;;;;;;;;;;5115881;28;20020;-71
2023/11/20 00:43:18;;;;;;;8.68;6.10;;;;;;;;;;5116692;28;20107;-71
2023/11/20 00:46:04;;;;;;;10.88;6.03;;;;;;;;;;5115599;28;20031;-71
2023/11/20 00:48:49;;;;;;;9.45;6.18;;;;;;;;;;5115720;28;20027;-71
2023/11/20 00:51:35;;;;;;;10.38;6.40;;;;;;;;;;5115124;28;20054;-71
2023/11/20 00:54:21;;;;;;;9.70;5.78;;;;;;;;;;5115095;28;20023;-70
2023/11/20 00:57:06;;;;;;;9.80;6.25;;;;;;;;;;5116328;28;20038;-71
2023/11/20 00:59:52;;;;;;;11.23;6.72;;;;;;;;;;5100647;28;20102;-72
2023/11/20 01:02:38;;;;;;;10.70;6.35;;;;;;;;;;5115992;28;20303;-71
2023/11/20 01:05:24;;;;;;;10.27;6.55;;;;;;;;;;5115350;28;20019;-71
2023/11/20 01:08:09;;;;;;;10.45;6.57;;;;;;;;;;5115738;28;20024;-71
2023/11/20 01:10:55;;;;;;;10.02;6.18;;;;;;;;;;5101099;28;20098;-71
2023/11/20 01:13:41;;;;;;;10.52;6.50;;;;;;;;;;5114726;28;20436;-72
2023/11/20 01:16:26;;;;;;;10.75;6.53;;;;;;;;;;5099878;28;20031;-72
2023/11/20 01:19:12;;;;;;;11.70;6.63;;;;;;;;;;5115260;28;20020;-71
2023/11/20 01:21:58;;;;;;;10.68;6.57;;;;;;;;;;5101022;28;20431;-72
2023/11/20 01:24:43;;;;;;;11.15;6.80;;;;;;;;;;5100765;28;20215;-72
2023/11/20 01:27:29;;;;;;;10.70;6.43;;;;;;;;;;5099732;28;20023;-71
2023/11/20 01:30:15;;;;;;;9.52;6.25;;;;;;;;;;5115164;28;20027;-71
2023/11/20 01:33:00;;;;;;;10.82;6.32;;;;;;;;;;5114860;28;20107;-71
2023/11/20 01:35:47;;;;;;;11.90;6.47;;;;;;;;;;5114419;28;20348;-72
2023/11/20 01:38:33;;;;;;;11.40;6.63;;;;;;;;;;5101539;28;20067;-72
2023/11/20 01:41:18;;;;;;;11.57;7.00;;;;;;;;;;5115360;28;20051;-71
2023/11/20 01:44:04;;;;;;;9.73;6.25;;;;;;;;;;5100200;28;20435;-71
2023/11/20 01:46:50;;;;;;;10.80;6.95;;;;;;;;;;5100485;28;20446;-72
2023/11/20 01:49:35;;;;;;;10.25;6.60;;;;;;;;;;5114236;28;20031;-71
2023/11/20 01:52:21;;;;;;;10.05;6.30;;;;;;;;;;5114661;28;20078;-71
2023/11/20 01:55:09;;;;;;;9.93;6.38;;;;;;;;;;5099983;28;20016;-72
2023/11/20 01:57:54;;;;;;;9.93;6.40;;;;;;;;;;5115469;28;20455;-71
2023/11/20 02:00:40;;;;;;;9.63;6.15;;;;;;;;;;5114178;28;20023;-72
2023/11/20 02:03:26;;;;;;;9.73;5.82;;;;;;;;;;5114001;28;20404;-72
2023/11/20 02:06:14;;;;;;;10.02;6.40;;;;;;;;;;5100150;28;20099;-73
2023/11/20 02:08:59;;;;;;;9.65;6.25;;;;;;;;;;5100068;28;20397;-71
2023/11/20 02:11:45;;;;;;;10.73;5.97;;;;;;;;;;5114575;28;20308;-71
2023/11/20 02:14:31;;;;;;;10.27;5.78;;;;;;;;;;5114158;28;20028;-72
2023/11/20 02:17:17;;;;;;;8.95;5.65;;;;;;;;;;5098106;28;20082;-71
2023/11/20 02:20:03;;;;;;;11.18;6.40;;;;;;;;;;5100008;28;20076;-71
2023/11/20 02:22:49;;;;;;;10.45;5.85;;;;;;;;;;5099768;28;20019;-70
2023/11/20 02:25:34;;;;;;;10.27;6.00;;;;;;;;;;5099278;28;20023;-71
2023/11/20 02:28:22;;;;;;;13.15;6.25;;;;;;;;;;5113979;28;20042;-70
2023/11/20 02:31:08;;;;;;;10.02;6.25;;;;;;;;;;5099703;28;20366;-71
2023/11/20 02:33:54;;;;;;;9.07;5.65;;;;;;;;;;5099144;28;20027;-71
2023/11/20 02:36:39;;;;;;;10.02;5.95;;;;;;;;;;5098960;28;20030;-71
2023/11/20 02:39:25;;;;;;;14.18;6.43;;;;;;;;;;5098573;28;20047;-72
2023/11/20 02:42:11;;;;;;;8.85;6.30;;;;;;;;;;5098198;28;20023;-71
2023/11/20 02:44:56;;;;;;;10.30;6.20;;;;;;;;;;5099192;28;20020;-71
2023/11/20 02:47:42;;;;;;;10.55;6.82;;;;;;;;;;5114216;28;20061;-70
2023/11/20 02:50:28;;;;;;;11.30;6.63;;;;;;;;;;5099196;28;20063;-71
2023/11/20 02:53:15;;;;;;;12.23;6.80;;;;;;;;;;5098789;28;20068;-71
2023/11/20 02:56:02;;;;;;;9.43;6.03;;;;;;;;;;5098869;28;20429;-71
2023/11/20 02:58:47;;;;;;;12.30;6.47;;;;;;;;;;5113342;28;20023;-71
2023/11/20 03:01:33;;;;;;;11.05;6.40;;;;;;;;;;5098052;28;20160;-71
2023/11/20 03:04:19;;;;;;;11.85;6.10;;;;;;;;;;5114772;28;20066;-71
2023/11/20 03:07:04;;;;;;;11.95;5.97;;;;;;;;;;5099173;28;20356;-70
2023/11/20 03:09:50;;;;;;;10.10;6.40;;;;;;;;;;5097903;28;20020;-70
2023/11/20 03:12:35;;;;;;;8.50;5.88;;;;;;;;;;5113205;28;20102;-71
2023/11/20 03:15:21;;;;;;;9.80;6.07;;;;;;;;;;5098898;28;20092;-71
2023/11/20 03:18:07;;;;;;;10.68;6.53;;;;;;;;;;5113674;28;20035;-71
2023/11/20 03:20:53;;;;;;;10.23;6.13;;;;;;;;;;5099804;28;20024;-72
2023/11/20 03:23:39;;;;;;;10.02;5.97;;;;;;;;;;5114130;28;20035;-70
2023/11/20 03:26:25;;;;;;;9.40;6.43;;;;;;;;;;5097776;28;20019;-71
2023/11/20 03:29:10;;;;;;;10.32;6.68;;;;;;;;;;5114322;28;20028;-71
2023/11/20 03:31:57;;;;;;;12.88;6.25;;;;;;;;;;5098691;28;20024;-71
2023/11/20 03:34:43;;;;;;;9.88;6.03;;;;;;;;;;5113306;28;20089;-71
2023/11/20 03:37:29;;;;;;;13.48;7.22;;;;;;;;;;5112370;28;20390;-72
2023/11/20 03:40:14;;;;;;;12.77;7.10;;;;;;;;;;5113359;28;20031;-72
2023/11/20 03:43:00;;;;;;;11.35;6.68;;;;;;;;;;5112847;28;20035;-72
2023/11/20 03:45:46;;;;;;;9.52;5.88;;;;;;;;;;5113322;28;20075;-72
2023/11/20 03:48:31;;;;;;;11.00;7.10;;;;;;;;;;5112871;28;20072;-71
2023/11/20 03:51:17;;;;;;;10.85;6.68;;;;;;;;;;5108723;28;20052;-71
2023/11/20 03:54:03;;;;;;;12.38;7.03;;;;;;;;;;5116836;28;20462;-70
2023/11/20 03:56:48;;;;;;;10.68;6.45;;;;;;;;;;5116290;28;20450;-72
2023/11/20 03:59:34;;;;;;;12.07;7.20;;;;;;;;;;5102818;28;20015;-72
2023/11/20 04:02:20;;;;;;;11.77;7.28;;;;;;;;;;5116360;28;20049;-72
2023/11/20 04:05:05;;;;;;;12.40;7.00;;;;;;;;;;5116285;28;20019;-72
2023/11/20 04:07:51;;;;;;;11.60;7.13;;;;;;;;;;5116138;28;20016;-71
2023/11/20 04:10:38;;;;;;;11.25;6.85;;;;;;;;;;5116749;28;20030;-72
2023/11/20 04:13:24;;;;;;;12.20;6.50;;;;;;;;;;5117693;28;20027;-72
2023/11/20 04:16:10;;;;;;;9.73;6.13;;;;;;;;;;5101575;28;20432;-72
2023/11/20 04:18:55;;;;;;;11.38;6.38;;;;;;;;;;5102668;28;20043;-72
2023/11/20 04:21:41;;;;;;;12.40;7.28;;;;;;;;;;5116597;28;20011;-71
2023/11/20 04:24:27;;;;;;;10.68;6.85;;;;;;;;;;5100858;28;20027;-72
2023/11/20 04:27:13;;;;;;;13.43;6.93;;;;;;;;;;5102033;28;20393;-71
2023/11/20 04:29:58;;;;;;;11.88;6.85;;;;;;;;;;5101310;28;20027;-70
2023/11/20 04:32:44;;;;;;;12.15;7.70;;;;;;;;;;5102367;28;20023;-72
2023/11/20 04:35:30;;;;;;;12.45;7.60;;;;;;;;;;5101861;28;20016;-72
2023/11/20 04:38:15;;;;;;;13.43;7.82;;;;;;;;;;5116289;28;20019;-71
2023/11/20 04:41:01;;;;;;;13.38;7.97;;;;;;;;;;5101405;28;20049;-72
2023/11/20 04:43:46;;;;;;;12.40;7.88;;;;;;;;;;5102448;28;20039;-71
2023/11/20 04:46:34;;;;;;;12.27;7.13;;;;;;;;;;5101221;28;20016;-71
2023/11/20 04:49:20;;;;;;;13.43;7.80;;;;;;;;;;5116250;28;20030;-72
2023/11/20 04:52:05;;;;;;;14.70;7.47;;;;;;;;;;5100085;28;20078;-72
2023/11/20 04:54:54;;;;;;;13.18;7.20;;;;;;;;;;5115670;28;20431;-71
2023/11/20 04:57:39;;;;;;;13.05;7.53;;;;;;;;;;5102151;28;20023;-72
2023/11/20 05:00:25;;;;;;;11.90;6.85;;;;;;;;;;5101702;28;20035;-72
2023/11/20 05:03:11;;;;;;;10.35;6.95;;;;;;;;;;5101071;28;20058;-72
2023/11/20 05:05:57;;;;;;;10.82;6.68;;;;;;;;;;5115561;28;20106;-72
2023/11/20 05:08:43;;;;;;;11.93;6.82;;;;;;;;;;5116263;28;20024;-72
2023/11/20 05:11:29;;;;;;;11.65;7.38;;;;;;;;;;5115383;28;20030;-72
2023/11/20 05:14:14;;;;;;;10.98;6.88;;;;;;;;;;5101823;28;20161;-72
2023/11/20 05:17:00;;;;;;;11.45;6.75;;;;;;;;;;5114400;28;20016;-72
2023/11/20 05:19:46;;;;;;;11.65;6.70;;;;;;;;;;5114854;28;20111;-71
2023/11/20 05:22:31;;;;;;;12.02;6.70;;;;;;;;;;5115856;28;20072;-73
2023/11/20 05:25:17;;;;;;;12.30;7.00;;;;;;;;;;5101080;28;20027;-71
2023/11/20 05:28:03;;;;;;;11.40;6.78;;;;;;;;;;5115516;28;20146;-72
2023/11/20 05:30:49;;;;;;;11.15;7.30;;;;;;;;;;5100700;28;20023;-71
2023/11/20 05:33:34;;;;;;;13.52;6.53;;;;;;;;;;5114790;28;20027;-72
2023/11/20 05:36:20;;;;;;;12.27;7.05;;;;;;;;;;5099852;28;20030;-72
2023/11/20 05:39:06;;;;;;;11.02;6.53;;;;;;;;;;5100343;28;20019;-72
2023/11/20 05:41:52;;;;;;;11.25;7.03;;;;;;;;;;5100396;28;20022;-72
2023/11/20 05:44:37;;;;;;;11.85;6.95;;;;;;;;;;5115393;28;20026;-72
2023/11/20 05:47:23;;;;;;;14.32;6.95;;;;;;;;;;5114533;28;20070;-72
2023/11/20 05:50:09;;;;;;;12.10;7.32;;;;;;;;;;5114648;28;20415;-73
2023/11/20 05:52:55;;;;;;;11.80;7.47;;;;;;;;;;5100850;28;20368;-73
2023/11/20 05:55:41;;;;;;;10.82;6.95;;;;;;;;;;5099223;28;20059;-72
2023/11/20 05:58:26;;;;;;;11.75;6.93;;;;;;;;;;5114604;28;20030;-72
2023/11/20 06:01:12;;;;;;;14.68;7.18;;;;;;;;;;5115285;28;20025;-72
2023/11/20 06:03:59;;;;;;;11.82;6.78;;;;;;;;;;5114707;28;20460;-71
2023/11/20 06:06:44;;;;;;;11.95;7.43;;;;;;;;;;5114739;28;20343;-71
2023/11/20 06:09:30;;;;;;;13.20;7.43;;;;;;;;;;5114096;28;20235;-71
2023/11/20 06:12:16;;;;;;;13.55;7.78;;;;;;;;;;5105395;28;20020;-72
2023/11/20 06:15:01;;;;;;;13.55;7.90;;;;;;;;;;5113963;28;20023;-70
2023/11/20 06:17:47;;;;;;;10.30;6.95;;;;;;;;;;5113283;28;20019;-72
2023/11/20 06:20:32;;;;;;;13.82;7.30;;;;;;;;;;5114433;28;20115;-72
2023/11/20 06:23:18;;;;;;;12.02;7.65;;;;;;;;;;5115556;28;20015;-72
2023/11/20 06:26:04;;;;;;;13.20;7.85;;;;;;;;;;5098367;28;20015;-69
2023/11/20 06:28:50;;;;;;;11.40;7.38;;;;;;;;;;5113840;28;20035;-72
2023/11/20 06:31:36;;;;;;;15.20;9.52;;;;;;;;;;5114163;28;20033;-71
2023/11/20 06:34:23;;;;;;;15.40;8.73;;;;;;;;;;5114164;28;20024;-73
2023/11/20 06:37:08;;;;;;;12.80;7.63;;;;;;;;;;5115045;28;20019;-72
2023/11/20 06:39:54;;;;;;;12.57;7.70;;;;;;;;;;5114007;28;20200;-72
2023/11/20 06:42:40;;;;;;;17.48;8.50;;;;;;;;;;5099254;28;20015;-72
2023/11/20 06:45:25;;;;;;;18.80;8.65;;;;;;;;;;5114342;28;20031;-72
2023/11/20 06:48:12;;;;;;;15.82;9.30;;;;;;;;;;5102072;28;20028;-72
2023/11/20 06:50:57;;;;;;;16.25;8.75;;;;;;;;;;5113908;28;20040;-73
2023/11/20 06:53:43;;;;;;;15.80;8.02;;;;;;;;;;5100286;28;20071;-73
2023/11/20 06:56:31;;;;;;;15.13;8.60;;;;;;;;;;5115342;28;20015;-72
2023/11/20 06:59:17;;;;;;;12.65;7.65;;;;;;;;;;5115909;28;20020;-73
2023/11/20 07:02:03;;;;;;;12.80;7.85;;;;;;;;;;5100661;28;20092;-72
2023/11/20 07:04:48;;;;;;;14.30;7.88;;;;;;;;;;5100127;28;20089;-73
2023/11/20 07:07:40;;;;;;;13.30;8.32;;;;;;;;;;5113845;28;20402;-73
2023/11/20 07:10:25;;;;;;;13.32;7.72;;;;;;;;;;5105435;28;20088;-72
2023/11/20 07:13:11;;;;;;;11.18;7.20;;;;;;;;;;5113882;28;20157;-73
2023/11/20 07:15:58;;;;;;;13.02;7.75;;;;;;;;;;5113552;28;20360;-73
2023/11/20 07:18:43;;;;;;;11.73;7.88;;;;;;;;;;5113808;28;20390;-71
2023/11/20 07:21:29;;;;;;;15.52;7.65;;;;;;;;;;5114266;28;20081;-72
2023/11/20 07:24:15;;;;;;;18.67;9.20;;;;;;;;;;5114767;28;20428;-72
2023/11/20 07:27:00;;;;;;;14.38;7.50;;;;;;;;;;5117955;28;20038;-73
2023/11/20 07:29:46;;;;;;;12.90;7.53;;;;;;;;;;5118513;28;20076;-73
2023/11/20 07:32:33;;;;;;;13.63;7.53;;;;;;;;;;5118046;28;20032;-72
2023/11/20 07:35:19;;;;;;;12.75;7.65;;;;;;;;;;5118699;28;20042;-72
2023/11/20 07:38:04;;;;;;;13.35;8.13;;;;;;;;;;5118036;28;20015;-74
2023/11/20 07:40:51;;;;;;;12.85;7.65;;;;;;;;;;5118274;28;20089;-73
2023/11/20 07:43:36;;;;;;;11.68;7.25;;;;;;;;;;5117703;28;20077;-72
2023/11/20 07:46:22;;;;;;;11.80;7.25;;;;;;;;;;5116685;28;20019;-73
2023/11/20 07:49:09;;;;;;;13.77;7.22;;;;;;;;;;5118097;28;20043;-73
2023/11/20 07:51:54;;;;;;;11.43;7.40;;;;;;;;;;5101613;28;20066;-74
2023/11/20 07:54:40;;;;;;;11.68;6.90;;;;;;;;;;5118223;28;20491;-72
2023/11/20 07:57:26;;;;;;;12.73;7.75;;;;;;;;;;5103075;28;20098;-72
2023/11/20 08:00:12;;;;;;;13.18;7.65;;;;;;;;;;5118000;28;20026;-73
2023/11/20 08:02:57;;;;;;;12.60;8.00;;;;;;;;;;5103765;28;20012;-72
2023/11/20 08:05:45;;;;;;;13.35;8.20;;;;;;;;;;5117506;28;20110;-72
2023/11/20 08:08:30;;;;;;;13.30;8.15;;;;;;;;;;5101864;28;20368;-71
2023/11/20 08:11:17;;;;;;;16.45;8.75;;;;;;;;;;5117072;28;20088;-70
2023/11/20 08:14:03;;;;;;;14.32;8.50;;;;;;;;;;5120141;28;20023;-73
2023/11/20 08:16:48;;;;;;;14.60;8.63;;;;;;;;;;5117601;28;20019;-73
2023/11/20 08:19:34;;;;;;;15.32;8.27;;;;;;;;;;5116988;28;20428;-73
2023/11/20 08:22:20;;;;;;;13.48;7.80;;;;;;;;;;5117305;28;20027;-74
2023/11/20 08:25:05;;;;;;;13.60;7.88;;;;;;;;;;5102073;28;20039;-73
2023/11/20 08:27:51;;;;;;;12.48;7.15;;;;;;;;;;5101621;28;20038;-71
2023/11/20 08:30:37;;;;;;;11.13;7.63;;;;;;;;;;5116348;28;20023;-74
2023/11/20 08:33:22;;;;;;;11.50;7.32;;;;;;;;;;5101749;28;20030;-72
2023/11/20 08:36:08;;;;;;;13.13;8.20;;;;;;;;;;5117048;28;20046;-72
2023/11/20 08:38:54;;;;;;;12.13;7.53;;;;;;;;;;5116775;28;20034;-72
2023/11/20 08:41:40;;;;;;;12.27;8.05;;;;;;;;;;5115872;28;20023;-72
2023/11/20 08:44:26;;;;;;;10.85;7.03;;;;;;;;;;5103176;28;20016;-72
2023/11/20 08:47:46;;;;;;;12.68;7.97;;;;;;;;;;5117532;28;20024;-72
2023/11/20 08:50:32;;;;;;;12.15;6.97;;;;;;;;;;5100903;28;20448;-73
2023/11/20 08:53:17;;;;;;;11.50;7.47;;;;;;;;;;5117074;28;20024;-72
2023/11/20 08:56:03;;;;;;;11.50;7.43;;;;;;;;;;5117218;28;20111;-73
2023/11/20 08:58:52;;;;;;;10.98;7.05;;;;;;;;;;5116963;28;20011;-73
2023/11/20 09:01:39;;;;;;;13.23;6.85;;;;;;;;;;5100699;28;20495;-73
2023/11/20 09:04:27;;;;;;;11.27;7.70;;;;;;;;;;5101229;28;20034;-73
2023/11/20 09:07:13;;;;;;;11.43;7.18;;;;;;;;;;5117757;28;20092;-72
2023/11/20 09:10:04;;;;;;;9.80;6.70;;;;;;;;;;5101878;28;20107;-72
2023/11/20 09:12:50;;;;;;;12.40;7.05;;;;;;;;;;5116022;28;20102;-71
2023/11/20 09:15:36;;;;;;;10.88;7.38;;;;;;;;;;5117113;28;20035;-73
2023/11/20 09:18:22;;;;;;;9.63;6.80;;;;;;;;;;5101290;28;20039;-72
2023/11/20 09:21:14;;;;;;;11.05;7.47;;;;;;;;;;5115896;28;20015;-73
2023/11/20 09:24:00;;;;;;;12.43;7.45;;;;;;;;;;5101988;28;20380;-73
2023/11/20 09:26:46;;;;;;;12.35;7.45;;;;;;;;;;5102510;28;20087;-73
2023/11/20 09:29:32;;;;;;;12.98;7.68;;;;;;;;;;5116781;28;20451;-71
2023/11/20 09:32:17;;;;;;;11.93;7.75;;;;;;;;;;5117177;28;20027;-71
2023/11/20 09:35:03;;;;;;;17.13;7.65;;;;;;;;;;5116548;28;20118;-70
2023/11/20 09:37:49;;;;;;;13.88;7.38;;;;;;;;;;5116021;28;20023;-71
2023/11/20 09:40:35;;;;;;;12.98;7.47;;;;;;;;;;5101046;28;20094;-72
2023/11/20 09:43:21;;;;;;;17.13;7.28;;;;;;;;;;5100086;28;20148;-73
2023/11/20 09:46:10;;;;;;;9.88;6.65;;;;;;;;;;5116539;28;20500;-73
2023/11/20 09:48:56;;;;;;;10.38;5.82;;;;;;;;;;5115328;28;20102;-74
2023/11/20 09:51:43;;;;;;;10.85;6.40;;;;;;;;;;5116460;28;20048;-71
2023/11/20 09:54:30;;;;;;;8.38;6.00;;;;;;;;;;5115676;28;20066;-72
2023/11/20 09:57:20;;;;;;;12.15;6.22;;;;;;;;;;5115121;28;20024;-72
2023/11/20 10:00:08;;;;;;;10.65;6.07;;;;;;;;;;5116092;28;20023;-72
2023/11/20 10:02:54;;;;;;;10.02;5.78;;;;;;;;;;5113622;28;20019;-72
2023/11/20 10:05:48;;;;;;;8.80;5.43;;;;;;;;;;5116347;28;20034;-71
2023/11/20 10:08:39;;;;;;;8.75;5.70;;;;;;;;;;5101792;28;20058;-72
2023/11/20 10:11:26;;;;;;;8.63;5.80;;;;;;;;;;5115403;28;20026;-74
2023/11/20 10:14:13;;;;;;;9.40;5.72;;;;;;;;;;5115693;28;20332;-72
2023/11/20 10:16:59;;;;;;;9.55;5.15;;;;;;;;;;5115177;28;20397;-71
2023/11/20 10:19:44;;;;;;;9.45;5.75;;;;;;;;;;5115814;28;20076;-70
2023/11/20 10:22:44;;;;;;;10.68;6.32;;;;;;;;;;5100603;28;20356;-72
2023/11/20 10:25:32;;;;;;;9.77;6.07;;;;;;;;;;5116385;28;20019;-70
2023/11/20 10:28:21;;;;;;;8.52;6.10;;;;;;;;;;5116139;28;20023;-71
2023/11/20 10:31:06;;;;;;;12.18;6.38;;;;;;;;;;5112762;28;20489;-71
2023/11/20 10:34:14;;;;;;;9.30;5.60;;;;;;;;;;5114318;28;20024;-71
2023/11/20 10:37:08;;;;;;;11.43;5.50;;;;;;;;;;5101560;28;20045;-72
2023/11/20 10:39:56;;;;;;;8.90;5.05;;;;;;;;;;5099337;28;20459;-72
2023/11/20 10:42:42;;;;;;;9.65;5.25;;;;;;;;;;5114977;28;20051;-71
2023/11/20 10:45:27;;;;;;;12.23;5.45;;;;;;;;;;5100840;28;20034;-69
2023/11/20 10:48:13;;;;;;;12.10;5.90;;;;;;;;;;5115396;28;20043;-71
2023/11/20 10:51:01;;;;;;;10.65;5.78;;;;;;;;;;5114566;28;20051;-72
2023/11/20 10:53:51;;;;;;;8.73;5.45;;;;;;;;;;5115538;28;20352;-71
2023/11/20 10:56:37;;;;;;;14.32;5.38;;;;;;;;;;5114125;28;20023;-72
2023/11/20 10:59:24;;;;;;;9.77;4.13;;;;;;;;;;5119517;28;20355;-70
2023/11/20 11:02:13;;;;;;;8.88;4.10;;;;;;;;;;5120852;28;20023;-70
2023/11/20 11:04:59;;;;;;;8.20;4.32;;;;;;;;;;5121437;28;20085;-70
2023/11/20 11:07:45;;;;;;;7.10;4.00;;;;;;;;;;5121946;28;20359;-70
2023/11/20 11:10:32;;;;;;;6.55;4.05;;;;;;;;;;5106667;28;20030;-74
2023/11/20 11:13:18;;;;;;;7.90;4.03;;;;;;;;;;5123459;28;20418;-72
2023/11/20 11:16:06;;;;;;;5.15;3.60;;;;;;;;;;5121770;28;20016;-72
2023/11/20 11:18:57;;;;;;;6.65;4.15;;;;;;;;;;5120725;28;20052;-71
2023/11/20 11:21:51;;;;;;;8.65;4.50;;;;;;;;;;5106806;28;20020;-71
2023/11/20 11:24:38;;;;;;;8.70;4.00;;;;;;;;;;5121978;28;20488;-71
2023/11/20 11:27:28;;;;;;;8.23;3.80;;;;;;;;;;5120472;28;20408;-72
2023/11/20 11:30:16;;;;;;;6.68;3.63;;;;;;;;;;5106899;28;20055;-71
2023/11/20 11:33:16;;;;;;;5.25;3.47;;;;;;;;;;5121496;28;20140;-73
2023/11/20 11:36:20;;;;;;;5.47;3.72;;;;;;;;;;5119776;28;20491;-74
2023/11/20 11:39:13;;;;;;;4.68;3.40;;;;;;;;;;5120495;28;20408;-71
2023/11/20 11:42:25;;;;;;;5.72;3.80;;;;;;;;;;5105360;28;20463;-71
2023/11/20 11:45:12;;;;;;;4.68;3.50;;;;;;;;;;5120122;28;20051;-71
2023/11/20 11:47:59;;;;;;;6.10;3.92;;;;;;;;;;5105977;28;20110;-71
2023/11/20 11:50:47;;;;;;;17.95;4.28;;;;;;;;;;5105117;28;20079;-71
2023/11/20 11:53:32;;;;;;;7.72;3.88;;;;;;;;;;5105364;28;20157;-71
2023/11/20 11:56:18;;;;;;;5.53;3.78;;;;;;;;;;5119875;28;20077;-71
2023/11/20 11:59:07;;;;;;;4.90;3.20;;;;;;;;;;5120381;28;20076;-70
2023/11/20 12:01:53;;;;;;;4.32;3.35;;;;;;;;;;5119716;28;20356;-73
2023/11/20 12:04:56;;;;;;;5.03;3.60;;;;;;;;;;5119923;28;20034;-70
2023/11/20 12:07:45;;;;;;;7.50;3.30;;;;;;;;;;5120924;28;20043;-70
2023/11/20 12:10:45;;;;;;;6.60;3.40;;;;;;;;;;5118557;28;20083;-69
2023/11/20 12:13:31;;;;;;;6.35;3.55;;;;;;;;;;5101765;28;20023;-70
2023/11/20 12:16:19;;;;;;;5.55;3.15;;;;;;;;;;5116229;28;20024;-72
2023/11/20 12:19:06;;;;;;;4.40;3.00;;;;;;;;;;5116295;28;20397;-72
2023/11/20 12:21:53;;;;;;;5.75;3.70;;;;;;;;;;5116634;28;20031;-71
2023/11/20 12:24:39;;;;;;;6.25;3.63;;;;;;;;;;5101375;28;20088;-72
2023/11/20 12:27:24;;;;;;;6.55;3.67;;;;;;;;;;5116394;28;20035;-71
2023/11/20 12:30:11;;;;;;;4.15;3.00;;;;;;;;;;5116030;28;20015;-73
2023/11/20 12:32:56;;;;;;;5.72;3.30;;;;;;;;;;5101267;28;20455;-72
2023/11/20 12:35:45;;;;;;;5.57;3.30;;;;;;;;;;5115859;28;20450;-71
2023/11/20 12:38:34;;;;;;;4.78;3.13;;;;;;;;;;5115997;28;20020;-74
2023/11/20 12:41:20;;;;;;;6.47;3.70;;;;;;;;;;5101115;28;20084;-72
2023/11/20 12:44:08;;;;;;;6.95;3.50;;;;;;;;;;5102085;28;20030;-72
2023/11/20 12:46:53;;;;;;;4.93;3.60;;;;;;;;;;5116383;28;20015;-76
2023/11/20 12:49:39;;;;;;;8.00;3.95;;;;;;;;;;5115476;28;20012;-74
2023/11/20 12:52:25;;;;;;;5.50;4.13;;;;;;;;;;5115919;28;20047;-75
2023/11/20 12:55:11;;;;;;;5.38;3.90;;;;;;;;;;5116267;28;20438;-76
2023/11/20 12:57:59;;;;;;;10.13;3.90;;;;;;;;;;5116690;27;20420;-72
2023/11/20 13:00:45;;;;;;;5.72;4.00;;;;;;;;;;5106614;28;20023;-73
2023/11/20 13:03:34;;;;;;;6.90;4.03;;;;;;;;;;5121217;27;20435;-73
2023/11/20 13:06:19;;;;;;;9.70;3.97;;;;;;;;;;5112204;27;20020;-75
2023/11/20 13:09:07;;;;;;;7.05;4.20;;;;;;;;;;5135946;27;20027;-75
2023/11/20 13:11:53;;;;;;;9.88;4.25;;;;;;;;;;5120970;27;20371;-76
2023/11/20 13:15:00;;;;;;;4.82;3.67;;;;;;;;;;5136208;27;20019;-76
2023/11/20 13:17:47;;;;;;;10.60;4.30;;;;;;;;;;5115914;28;20028;-73
2023/11/20 13:20:40;;;;;;;10.73;4.13;;;;;;;;;;5101455;28;20448;-72
2023/11/20 13:23:28;;;;;;;7.55;4.53;;;;;;;;;;5114925;28;20019;-72
2023/11/20 13:26:15;;;;;;;6.32;4.13;;;;;;;;;;5115415;28;20102;-70
2023/11/20 13:29:03;;;;;;;9.50;4.55;;;;;;;;;;5115758;28;20015;-70
2023/11/20 13:31:48;;;;;;;7.75;4.45;;;;;;;;;;5101232;28;20020;-72
2023/11/20 13:34:34;;;;;;;6.65;4.63;;;;;;;;;;5114204;28;20081;-72
2023/11/20 13:37:19;;;;;;;19.08;5.72;;;;;;;;;;5113448;28;20073;-74
2023/11/20 13:40:11;;;;;;;18.45;6.93;;;;;;;;;;5101118;28;20028;-72
2023/11/20 13:42:57;;;;;;;14.13;5.50;;;;;;;;;;5115139;28;20020;-70
2023/11/20 13:45:43;;;;;;;10.32;5.10;;;;;;;;;;5114542;28;20360;-72
2023/11/20 13:48:31;;;;;;;8.98;5.00;;;;;;;;;;5114696;28;20036;-73
2023/11/20 13:51:18;;;;;;;14.75;5.18;;;;;;;;;;5114977;28;20097;-72
2023/11/20 13:54:04;;;;;;;9.48;5.00;;;;;;;;;;5114003;28;20020;-72
2023/11/20 13:56:50;;;;;;;9.50;5.20;;;;;;;;;;5114904;28;20126;-70
2023/11/20 13:59:35;;;;;;;12.43;6.10;;;;;;;;;;5114388;28;20128;-71
2023/11/20 14:02:21;;;;;;;14.48;5.68;;;;;;;;;;5114309;28;20351;-72
2023/11/20 14:05:07;;;;;;;23.80;7.05;;;;;;;;;;5100093;28;20126;-72
2023/11/20 14:07:52;;;;;;;20.77;6.72;;;;;;;;;;5114968;28;20093;-72
2023/11/20 14:10:41;;;;;;;12.18;6.63;;;;;;;;;;5114249;28;20456;-71
2023/11/20 14:13:27;;;;;;;12.18;6.10;;;;;;;;;;5115116;28;20100;-72
2023/11/20 14:16:13;;;;;;;10.30;6.50;;;;;;;;;;5115447;28;20042;-71
2023/11/20 14:18:59;;;;;;;13.77;6.95;;;;;;;;;;5099094;28;20020;-71
2023/11/20 14:21:44;;;;;;;13.15;5.97;;;;;;;;;;5115007;28;20098;-75
2023/11/20 14:24:30;;;;;;;15.75;6.40;;;;;;;;;;5114636;28;20023;-73
2023/11/20 14:27:17;;;;;;;12.93;6.15;;;;;;;;;;5113890;28;20439;-74
2023/11/20 14:30:04;;;;;;;15.85;6.30;;;;;;;;;;5115385;28;20028;-74
2023/11/20 14:32:52;;;;;;;11.45;6.03;;;;;;;;;;5114650;28;20047;-75
2023/11/20 14:35:38;;;;;;;17.42;6.97;;;;;;;;;;5115029;28;20031;-73
2023/11/20 14:38:24;;;;;;;14.35;6.65;;;;;;;;;;5115282;28;20449;-73
2023/11/20 14:41:10;;;;;;;12.57;6.50;;;;;;;;;;5114687;28;20035;-74
2023/11/20 14:43:55;;;;;;;15.82;7.00;;;;;;;;;;5115413;28;20077;-74
2023/11/20 14:46:41;;;;;;;14.15;6.63;;;;;;;;;;5113980;28;20375;-74
2023/11/20 14:49:27;;;;;;;33.42;8.60;;;;;;;;;;5114010;28;20027;-74
2023/11/20 14:52:12;;;;;;;77.70;11.77;;;;;;;;;;5119303;27;20039;-75
2023/11/20 14:54:58;;;;;;;84.78;11.98;;;;;;;;;;5119178;28;20031;-73
2023/11/20 14:57:46;;;;;;;88.80;12.90;;;;;;;;;;5134885;28;20168;-73
2023/11/20 15:00:32;;;;;;;106.63;13.73;;;;;;;;;;5134762;28;20148;-75
2023/11/20 15:03:18;;;;;;;56.88;12.23;;;;;;;;;;5119182;28;20019;-78
2023/11/20 15:06:03;;;;;;;51.25;11.40;;;;;;;;;;5133698;28;20011;-76
2023/11/20 15:08:49;;;;;;;41.50;11.20;;;;;;;;;;5134285;28;20358;-77
2023/11/20 15:11:35;;;;;;;66.97;11.90;;;;;;;;;;5132901;28;20100;-76
2023/11/20 15:14:20;;;;;;;77.25;13.02;;;;;;;;;;5119138;28;20109;-75
2023/11/20 15:17:07;;;;;;;56.30;12.40;;;;;;;;;;5133439;28;20019;-76
2023/11/20 15:19:52;;;;;;;42.65;12.98;;;;;;;;;;5132191;28;20019;-78
2023/11/20 15:22:38;;;;;;;38.47;12.88;;;;;;;;;;5120431;28;20015;-78
2023/11/20 15:25:24;;;;;;;30.42;12.05;;;;;;;;;;5133768;28;20446;-75
2023/11/20 15:28:09;;;;;;;41.92;11.90;;;;;;;;;;5154997;27;20037;-72
2023/11/20 15:30:55;;;;;;;25.85;10.43;;;;;;;;;;5140213;27;20036;-73
2023/11/20 15:33:42;;;;;;;48.78;14.88;;;;;;;;;;5126097;27;20019;-74
2023/11/20 15:36:27;;;;;;;58.85;13.77;;;;;;;;;;5153774;27;20019;-73
2023/11/20 15:39:15;;;;;;;41.67;12.77;;;;;;;;;;5140545;27;20016;-74
2023/11/20 15:42:01;;;;;;;39.72;12.43;;;;;;;;;;5134622;28;20023;-73
2023/11/20 15:44:46;;;;;;;39.55;14.07;;;;;;;;;;5134397;27;20390;-74
2023/11/20 15:47:32;;;;;;;33.92;14.90;;;;;;;;;;5138008;27;20490;-74
2023/11/20 15:50:18;;;;;;;48.92;16.45;;;;;;;;;;5122869;27;20050;-73
2023/11/20 15:53:04;;;;;;;37.55;15.75;;;;;;;;;;5123284;27;20038;-74
2023/11/20 15:55:50;;;;;;;76.90;17.70;;;;;;;;;;5143460;27;20030;-74
2023/11/20 15:58:35;;;;;;;53.45;18.08;;;;;;;;;;5117439;28;20019;-73
2023/11/20 16:01:23;;;;;;;84.88;21.20;;;;;;;;;;5116878;28;20028;-73
2023/11/20 16:04:10;;;;;;;56.05;21.50;;;;;;;;;;5117356;28;20015;-74
2023/11/20 16:06:57;;;;;;;60.65;23.25;;;;;;;;;;5116764;28;20336;-73
2023/11/20 16:09:42;;;;;;;70.38;28.10;;;;;;;;;;5117351;28;20035;-73
2023/11/20 16:12:28;;;;;;;150.05;32.92;;;;;;;;;;5121240;27;20057;-72
2023/11/20 16:15:13;;;;;;;139.32;30.65;;;;;;;;;;5136308;27;20432;-73
2023/11/20 16:17:59;;;;;;;181.20;34.72;;;;;;;;;;5137152;27;20509;-74
2023/11/20 16:20:45;;;;;;;119.75;31.13;;;;;;;;;;5137577;27;20023;-72
2023/11/20 16:23:30;;;;;;;133.10;32.75;;;;;;;;;;5136721;27;20047;-72
2023/11/20 16:26:16;;;;;;;134.68;34.08;;;;;;;;;;5137296;27;20035;-73